createdAt,value
2022-11-27T00:00:23.331Z,10.75
2022-11-27T00:01:56.494Z,10.23
2022-11-27T00:03:29.764Z,9.90
2022-11-27T00:05:04.500Z,10.45
2022-11-27T00:06:39.754Z,10.18
2022-11-27T00:08:12.956Z,10.70
2022-11-27T00:09:46.173Z,10.73
2022-11-27T00:11:21.678Z,11.30
2022-11-27T00:12:54.844Z,10.63
2022-11-27T00:14:28.089Z,13.57
2022-11-27T00:16:01.478Z,10.93
2022-11-27T00:17:34.663Z,9.98
2022-11-27T00:19:07.913Z,10.23
2022-11-27T00:20:42.631Z,9.98
2022-11-27T00:22:15.859Z,10.38
2022-11-27T00:23:49.338Z,11.27
2022-11-27T00:25:22.528Z,10.43
2022-11-27T00:26:55.787Z,11.25
2022-11-27T00:28:29.487Z,13.85
2022-11-27T00:30:02.708Z,14.55
2022-11-27T00:31:37.906Z,15.30
2022-11-27T00:33:11.306Z,19.48
2022-11-27T00:34:44.534Z,17.83
2022-11-27T00:36:19.123Z,12.45
2022-11-27T00:37:52.310Z,10.25
2022-11-27T00:39:25.549Z,9.50
2022-11-27T00:41:01.007Z,9.60
2022-11-27T00:42:34.163Z,9.45
2022-11-27T00:44:07.588Z,8.55
2022-11-27T00:45:40.912Z,8.82
2022-11-27T00:47:14.066Z,8.75
2022-11-27T00:48:47.897Z,9.27
2022-11-27T00:50:21.287Z,9.15
2022-11-27T00:51:55.869Z,9.00
2022-11-27T00:53:29.113Z,8.70
2022-11-27T00:55:02.232Z,9.95
2022-11-27T00:56:37.655Z,9.85
2022-11-27T00:58:10.783Z,9.07
2022-11-27T00:59:43.975Z,10.63
2022-11-27T01:01:19.725Z,10.95
2022-11-27T01:02:53.011Z,9.50
2022-11-27T01:04:26.244Z,10.48
2022-11-27T01:06:03.093Z,7.82
2022-11-27T01:07:37.784Z,8.35
2022-11-27T01:09:12.627Z,9.75
2022-11-27T01:10:54.533Z,8.57
2022-11-27T01:12:28.236Z,8.43
2022-11-27T01:14:03.401Z,9.15
2022-11-27T01:15:35.742Z,8.43
2022-11-27T01:17:08.876Z,8.13
2022-11-27T01:18:44.215Z,8.40
2022-11-27T01:20:17.510Z,10.50
2022-11-27T01:21:50.784Z,9.45
2022-11-27T01:23:25.708Z,9.23
2022-11-27T01:24:58.944Z,9.93
2022-11-27T01:26:32.174Z,9.30
2022-11-27T01:28:05.627Z,8.88
2022-11-27T01:29:39.021Z,8.85
2022-11-27T01:31:14.868Z,9.23
2022-11-27T01:32:48.099Z,9.07
2022-11-27T01:34:21.400Z,8.90
2022-11-27T01:35:56.394Z,8.32
2022-11-27T01:37:29.555Z,8.80
2022-11-27T01:39:04.783Z,9.25
2022-11-27T01:40:38.075Z,8.18
2022-11-27T01:42:12.048Z,9.43
2022-11-27T01:43:47.768Z,9.57
2022-11-27T01:45:22.494Z,10.65
2022-11-27T01:46:57.729Z,9.90
2022-11-27T01:48:30.958Z,9.30
2022-11-27T01:50:14.685Z,10.50
2022-11-27T01:51:53.454Z,9.93
2022-11-27T01:53:27.128Z,19.70
2022-11-27T01:55:07.367Z,12.38
2022-11-27T01:56:42.182Z,12.05
2022-11-27T01:58:19.741Z,10.88
2022-11-27T01:59:54.478Z,10.48
2022-11-27T02:01:27.670Z,11.45
2022-11-27T02:03:01.313Z,10.00
2022-11-27T02:04:34.598Z,11.43
2022-11-27T02:06:08.354Z,11.10
2022-11-27T02:07:42.048Z,11.93
2022-11-27T02:09:15.519Z,9.48
2022-11-27T02:10:54.175Z,11.70
2022-11-27T02:12:31.538Z,11.07
2022-11-27T02:14:12.622Z,9.88
2022-11-27T02:15:51.935Z,9.70
2022-11-27T02:17:31.839Z,10.93
2022-11-27T02:19:15.418Z,10.13
2022-11-27T02:20:55.610Z,10.45
2022-11-27T02:22:45.083Z,10.80
2022-11-27T02:24:43.961Z,15.95
2022-11-27T02:26:34.378Z,9.32
2022-11-27T02:28:25.623Z,9.68
2022-11-27T02:30:03.299Z,8.63
2022-11-27T02:31:41.683Z,11.13
2022-11-27T02:33:21.501Z,9.75
2022-11-27T02:35:01.363Z,9.02
2022-11-27T02:36:36.647Z,8.75
2022-11-27T02:38:16.529Z,8.05
2022-11-27T02:39:56.760Z,8.73
2022-11-27T02:41:33.422Z,8.07
2022-11-27T02:43:09.912Z,7.85
2022-11-27T02:44:48.987Z,7.07
2022-11-27T02:46:24.225Z,7.45
2022-11-27T02:47:58.935Z,7.35
2022-11-27T02:49:34.208Z,8.00
2022-11-27T02:51:09.518Z,8.45
2022-11-27T02:52:44.835Z,20.35
2022-11-27T02:54:23.614Z,19.90
2022-11-27T02:55:59.463Z,17.35
2022-11-27T02:57:34.562Z,14.88
2022-11-27T02:59:10.594Z,14.68
2022-11-27T03:00:46.410Z,14.20
2022-11-27T03:02:30.354Z,16.58
2022-11-27T03:04:10.097Z,20.52
2022-11-27T03:05:47.148Z,22.05
2022-11-27T03:07:27.080Z,22.33
2022-11-27T03:09:05.770Z,23.50
2022-11-27T03:10:47.553Z,24.40
2022-11-27T03:12:21.184Z,23.23
2022-11-27T03:13:57.000Z,25.02
2022-11-27T03:15:38.738Z,23.08
2022-11-27T03:17:23.744Z,20.58
2022-11-27T03:19:02.100Z,19.95
2022-11-27T03:20:41.846Z,18.77
2022-11-27T03:22:16.507Z,18.33
2022-11-27T03:23:48.777Z,20.85
2022-11-27T03:25:22.188Z,22.70
2022-11-27T03:26:55.840Z,22.80
2022-11-27T03:28:30.760Z,13.80
2022-11-27T03:30:08.236Z,11.00
2022-11-27T03:31:42.007Z,10.20
2022-11-27T03:33:16.809Z,10.50
2022-11-27T03:34:50.204Z,9.70
2022-11-27T03:36:24.153Z,8.68
2022-11-27T03:37:58.005Z,8.27
2022-11-27T03:39:31.065Z,9.95
2022-11-27T03:41:10.187Z,9.20
2022-11-27T03:42:57.646Z,8.40
2022-11-27T03:44:36.697Z,8.88
2022-11-27T03:46:13.088Z,9.55
2022-11-27T03:48:00.152Z,9.05
2022-11-27T03:49:45.071Z,9.27
2022-11-27T03:51:23.020Z,8.43
2022-11-27T03:53:07.119Z,8.20
2022-11-27T03:54:49.817Z,8.43
2022-11-27T03:56:37.239Z,7.43
2022-11-27T03:58:16.191Z,7.28
2022-11-27T03:59:54.173Z,7.88
2022-11-27T04:01:29.707Z,7.57
2022-11-27T04:03:04.415Z,7.43
2022-11-27T04:04:39.115Z,7.93
2022-11-27T04:06:12.905Z,7.20
2022-11-27T04:07:46.183Z,6.75
2022-11-27T04:09:19.462Z,7.70
2022-11-27T04:10:52.657Z,8.02
2022-11-27T04:12:25.873Z,7.68
2022-11-27T04:13:59.327Z,8.43
2022-11-27T04:15:32.513Z,8.43
2022-11-27T04:17:05.733Z,9.73
2022-11-27T04:18:38.953Z,8.90
2022-11-27T04:20:15.435Z,8.95
2022-11-27T04:21:47.642Z,8.30
2022-11-27T04:23:20.835Z,7.07
2022-11-27T04:24:54.045Z,6.53
2022-11-27T04:26:27.267Z,7.88
2022-11-27T04:27:59.478Z,7.93
2022-11-27T04:29:32.764Z,8.73
2022-11-27T04:31:06.228Z,8.00
2022-11-27T04:32:39.523Z,7.38
2022-11-27T04:34:11.832Z,7.80
2022-11-27T04:35:46.373Z,8.35
2022-11-27T04:37:19.616Z,8.52
2022-11-27T04:38:52.848Z,8.75
2022-11-27T04:40:26.282Z,11.55
2022-11-27T04:41:59.448Z,10.27
2022-11-27T04:43:32.675Z,8.60
2022-11-27T04:45:06.991Z,8.50
2022-11-27T04:46:40.252Z,10.43
2022-11-27T04:48:12.557Z,8.90
2022-11-27T04:49:45.967Z,9.20
2022-11-27T04:51:20.538Z,11.30
2022-11-27T04:52:53.785Z,8.27
2022-11-27T04:54:27.615Z,8.38
2022-11-27T04:56:01.295Z,7.13
2022-11-27T04:57:33.692Z,8.43
2022-11-27T04:59:06.969Z,8.10
2022-11-27T05:00:40.273Z,7.60
2022-11-27T05:02:13.528Z,7.63
2022-11-27T05:03:48.676Z,7.20
2022-11-27T05:05:20.841Z,8.88
2022-11-27T05:06:55.436Z,12.85
2022-11-27T05:08:31.179Z,12.70
2022-11-27T05:10:05.092Z,10.45
2022-11-27T05:11:38.323Z,9.27
2022-11-27T05:13:11.594Z,10.30
2022-11-27T05:14:44.828Z,10.35
2022-11-27T05:16:18.078Z,9.02
2022-11-27T05:17:51.259Z,9.10
2022-11-27T05:19:25.822Z,9.23
2022-11-27T05:20:58.784Z,9.80
2022-11-27T05:22:33.368Z,8.32
2022-11-27T05:24:07.428Z,8.90
2022-11-27T05:25:40.837Z,8.70
2022-11-27T05:27:14.090Z,8.43
2022-11-27T05:28:47.338Z,8.77
2022-11-27T05:30:20.578Z,8.30
2022-11-27T05:31:54.139Z,8.65
2022-11-27T05:33:26.373Z,8.73
2022-11-27T05:34:59.618Z,8.68
2022-11-27T05:36:34.236Z,9.00
2022-11-27T05:38:08.844Z,9.55
2022-11-27T05:39:42.104Z,8.20
2022-11-27T05:41:15.315Z,8.52
2022-11-27T05:42:48.547Z,9.85
2022-11-27T05:44:21.718Z,7.60
2022-11-27T05:45:54.902Z,14.80
2022-11-27T05:47:28.151Z,14.82
2022-11-27T05:49:01.476Z,9.70
2022-11-27T05:50:34.627Z,13.80
2022-11-27T05:52:07.864Z,30.80
2022-11-27T05:53:41.733Z,26.33
2022-11-27T05:55:15.145Z,26.98
2022-11-27T05:56:48.386Z,19.85
2022-11-27T05:58:21.677Z,17.63
2022-11-27T05:59:55.015Z,13.70
2022-11-27T06:01:28.299Z,12.70
2022-11-27T06:03:01.695Z,14.45
2022-11-27T06:04:35.623Z,18.17
2022-11-27T06:06:09.650Z,23.75
2022-11-27T06:07:43.005Z,17.30
2022-11-27T06:09:17.591Z,13.98
2022-11-27T06:10:51.689Z,16.48
2022-11-27T06:12:24.924Z,20.52
2022-11-27T06:13:58.054Z,16.67
2022-11-27T06:15:31.314Z,15.55
2022-11-27T06:17:05.141Z,22.13
2022-11-27T06:18:38.397Z,20.70
2022-11-27T06:20:12.059Z,20.60
2022-11-27T06:21:46.629Z,22.50
2022-11-27T06:23:19.789Z,25.88
2022-11-27T06:24:54.485Z,22.40
2022-11-27T06:26:29.704Z,23.02
2022-11-27T06:28:02.939Z,23.77
2022-11-27T06:29:37.561Z,26.27
2022-11-27T06:31:17.546Z,25.75
2022-11-27T06:32:51.316Z,25.73
2022-11-27T06:34:24.488Z,24.95
2022-11-27T06:35:56.706Z,22.00
2022-11-27T06:37:29.824Z,24.17
2022-11-27T06:39:04.232Z,19.05
2022-11-27T06:40:38.804Z,19.63
2022-11-27T06:42:12.948Z,16.48
2022-11-27T06:43:46.443Z,17.27
2022-11-27T06:45:19.687Z,16.17
2022-11-27T06:46:52.877Z,14.60
2022-11-27T06:48:26.092Z,15.20
2022-11-27T06:49:59.211Z,14.98
2022-11-27T06:51:33.522Z,17.63
2022-11-27T06:53:06.697Z,15.23
2022-11-27T06:54:39.947Z,17.55
2022-11-27T06:56:16.601Z,19.40
2022-11-27T06:57:51.497Z,19.90
2022-11-27T06:59:24.764Z,18.20
2022-11-27T07:00:59.223Z,14.98
2022-11-27T07:02:32.453Z,15.98
2022-11-27T07:04:06.047Z,17.83
2022-11-27T07:05:39.423Z,17.77
2022-11-27T07:07:12.661Z,18.15
2022-11-27T07:08:45.956Z,16.33
2022-11-27T07:10:19.174Z,19.05
2022-11-27T07:11:53.867Z,19.83
2022-11-27T07:13:27.011Z,17.77
2022-11-27T07:15:04.051Z,18.90
2022-11-27T07:16:38.154Z,19.50
2022-11-27T07:18:11.397Z,19.55
2022-11-27T07:19:44.687Z,18.30
2022-11-27T07:21:18.654Z,27.15
2022-11-27T07:22:51.956Z,27.80
2022-11-27T07:24:24.219Z,24.48
2022-11-27T07:25:57.509Z,24.15
2022-11-27T07:27:32.103Z,26.88
2022-11-27T07:29:05.257Z,26.42
2022-11-27T07:30:38.626Z,29.08
2022-11-27T07:32:11.769Z,30.50
2022-11-27T07:33:45.229Z,26.40
2022-11-27T07:35:18.983Z,28.50
2022-11-27T07:36:52.800Z,27.05
2022-11-27T07:38:25.988Z,26.55
2022-11-27T07:40:03.459Z,24.75
2022-11-27T07:41:37.034Z,59.13
2022-11-27T07:43:11.706Z,20.85
2022-11-27T07:44:44.837Z,22.42
2022-11-27T07:46:19.590Z,25.42
2022-11-27T07:47:52.816Z,25.65
2022-11-27T07:49:25.943Z,23.95
2022-11-27T07:50:58.460Z,24.35
2022-11-27T07:52:33.610Z,23.50
2022-11-27T07:54:08.720Z,22.77
2022-11-27T07:55:42.905Z,23.65
2022-11-27T07:57:16.051Z,27.70
2022-11-27T07:58:50.800Z,27.92
2022-11-27T08:00:24.279Z,26.80
2022-11-27T08:01:57.598Z,26.13
2022-11-27T08:03:30.726Z,23.42
2022-11-27T08:05:08.083Z,23.42
2022-11-27T08:06:42.992Z,24.35
2022-11-27T08:08:16.390Z,22.95
2022-11-27T08:09:49.565Z,27.20
2022-11-27T08:11:24.796Z,25.15
2022-11-27T08:12:59.053Z,26.80
2022-11-27T08:14:33.670Z,28.38
2022-11-27T08:16:07.425Z,31.75
2022-11-27T08:17:41.209Z,30.25
2022-11-27T08:19:14.834Z,32.22
2022-11-27T08:20:48.257Z,35.22
2022-11-27T08:22:21.627Z,31.75
2022-11-27T08:23:54.907Z,33.20
2022-11-27T08:25:28.118Z,33.33
2022-11-27T08:27:01.289Z,35.15
2022-11-27T08:28:34.754Z,34.60
2022-11-27T08:30:10.504Z,32.92
2022-11-27T08:31:43.802Z,33.38
2022-11-27T08:33:16.002Z,40.97
2022-11-27T08:34:49.262Z,42.17
2022-11-27T08:36:22.761Z,42.95
2022-11-27T08:37:55.991Z,39.55
2022-11-27T08:39:29.184Z,37.88
2022-11-27T08:41:05.042Z,39.60
2022-11-27T08:42:38.298Z,39.88
2022-11-27T08:44:11.550Z,42.15
2022-11-27T08:45:46.197Z,41.53
2022-11-27T08:47:19.455Z,47.42
2022-11-27T08:48:52.768Z,48.25
2022-11-27T08:50:25.987Z,46.65
2022-11-27T08:51:59.236Z,53.83
2022-11-27T08:53:32.477Z,50.10
2022-11-27T08:55:06.292Z,53.05
2022-11-27T08:56:39.505Z,52.97
2022-11-27T08:58:12.983Z,52.50
2022-11-27T08:59:46.772Z,50.83
2022-11-27T09:01:23.226Z,50.55
2022-11-27T09:02:56.600Z,51.97
2022-11-27T09:04:30.174Z,52.55
2022-11-27T09:06:03.435Z,54.25
2022-11-27T09:07:36.796Z,53.55
2022-11-27T09:09:10.033Z,37.00
2022-11-27T09:10:43.336Z,32.88
2022-11-27T09:12:16.536Z,30.77
2022-11-27T09:13:49.844Z,29.90
2022-11-27T09:15:23.127Z,21.60
2022-11-27T09:16:57.800Z,24.45
2022-11-27T09:18:31.216Z,23.70
2022-11-27T09:20:05.851Z,24.48
2022-11-27T09:21:39.127Z,22.27
2022-11-27T09:23:14.544Z,22.83
2022-11-27T09:24:48.099Z,24.30
2022-11-27T09:26:23.651Z,24.63
2022-11-27T09:27:56.828Z,39.00
2022-11-27T09:29:30.099Z,44.63
2022-11-27T09:31:05.749Z,39.20
2022-11-27T09:32:40.337Z,41.45
2022-11-27T09:34:13.663Z,38.95
2022-11-27T09:35:46.880Z,30.48
2022-11-27T09:37:20.123Z,30.52
2022-11-27T09:38:53.611Z,31.23
2022-11-27T09:40:26.863Z,36.75
2022-11-27T09:42:02.969Z,26.05
2022-11-27T09:43:42.765Z,22.30
2022-11-27T09:45:17.623Z,20.00
2022-11-27T09:46:51.885Z,22.38
2022-11-27T09:48:35.123Z,27.58
2022-11-27T09:50:15.916Z,21.73
2022-11-27T09:51:55.153Z,23.02
2022-11-27T09:53:34.027Z,19.38
2022-11-27T09:55:14.685Z,18.77
2022-11-27T09:56:52.172Z,20.88
2022-11-27T09:58:37.617Z,20.33
2022-11-27T10:00:16.452Z,19.63
2022-11-27T10:01:51.239Z,18.65
2022-11-27T10:03:28.763Z,16.98
2022-11-27T10:05:13.828Z,17.55
2022-11-27T10:07:09.163Z,18.30
2022-11-27T10:08:49.318Z,29.17
2022-11-27T10:10:33.959Z,23.08
2022-11-27T10:12:14.428Z,20.35
2022-11-27T10:14:01.239Z,24.88
2022-11-27T10:15:43.479Z,20.67
2022-11-27T10:17:22.010Z,23.83
2022-11-27T10:19:00.671Z,27.52
2022-11-27T10:20:41.118Z,26.08
2022-11-27T10:22:21.436Z,26.25
2022-11-27T10:24:02.026Z,26.58
2022-11-27T10:25:42.555Z,26.45
2022-11-27T10:27:22.240Z,24.02
2022-11-27T10:29:02.093Z,25.10
2022-11-27T10:30:40.239Z,20.67
2022-11-27T10:32:46.917Z,21.15
2022-11-27T10:34:26.405Z,22.23
2022-11-27T10:36:02.020Z,24.58
2022-11-27T10:37:41.694Z,25.27
2022-11-27T10:39:18.351Z,22.88
2022-11-27T10:41:03.909Z,23.33
2022-11-27T10:42:43.187Z,24.40
2022-11-27T10:44:28.822Z,20.77
2022-11-27T10:46:08.536Z,25.83
2022-11-27T10:47:44.343Z,20.67
2022-11-27T10:49:18.890Z,18.05
2022-11-27T10:50:52.533Z,17.55
2022-11-27T10:52:25.811Z,16.67
2022-11-27T10:54:02.003Z,14.27
2022-11-27T10:55:53.832Z,14.50
2022-11-27T10:58:02.722Z,14.23
2022-11-27T10:59:39.455Z,16.33
2022-11-27T11:01:15.527Z,11.00
2022-11-27T11:02:48.829Z,12.07
2022-11-27T11:04:38.633Z,15.32
2022-11-27T11:06:22.303Z,13.00
2022-11-27T11:08:02.444Z,15.10
2022-11-27T11:09:37.108Z,18.70
2022-11-27T11:11:10.635Z,19.17
2022-11-27T11:12:44.151Z,21.60
2022-11-27T11:14:20.351Z,18.80
2022-11-27T11:15:57.507Z,20.58
2022-11-27T11:17:34.889Z,17.08
2022-11-27T11:19:25.300Z,14.55
2022-11-27T11:21:00.269Z,18.60
2022-11-27T11:22:33.734Z,45.03
2022-11-27T11:24:14.851Z,12.98
2022-11-27T11:25:51.954Z,10.23
2022-11-27T11:27:29.627Z,13.23
2022-11-27T11:29:06.294Z,14.18
2022-11-27T11:30:39.826Z,14.82
2022-11-27T11:32:18.069Z,13.32
2022-11-27T11:33:55.751Z,16.88
2022-11-27T11:35:34.802Z,18.77
2022-11-27T11:37:19.567Z,21.58
2022-11-27T11:38:53.997Z,20.42
2022-11-27T11:40:31.018Z,21.63
2022-11-27T11:42:11.047Z,21.52
2022-11-27T11:43:58.424Z,23.98
2022-11-27T11:45:33.463Z,20.05
2022-11-27T11:47:06.698Z,23.67
2022-11-27T11:48:39.934Z,23.48
2022-11-27T11:50:15.839Z,23.30
2022-11-27T11:52:07.644Z,25.30
2022-11-27T11:53:44.500Z,25.60
2022-11-27T11:55:23.150Z,27.38
2022-11-27T11:57:01.299Z,23.52
2022-11-27T11:58:50.749Z,23.45
2022-11-27T12:00:30.335Z,24.63
2022-11-27T12:02:39.215Z,24.88
2022-11-27T12:04:32.285Z,22.42
2022-11-27T12:06:23.991Z,23.70
2022-11-27T12:08:16.002Z,23.88
2022-11-27T12:09:58.665Z,22.38
2022-11-27T12:11:41.444Z,21.73
2022-11-27T12:13:30.372Z,25.40
2022-11-27T12:15:14.250Z,24.67
2022-11-27T12:17:04.533Z,22.77
2022-11-27T12:18:54.565Z,21.67
2022-11-27T12:20:42.338Z,27.38
2022-11-27T12:22:26.213Z,24.60
2022-11-27T12:24:11.292Z,24.92
2022-11-27T12:25:50.787Z,24.23
2022-11-27T12:27:34.505Z,23.55
2022-11-27T12:29:29.222Z,25.42
2022-11-27T12:31:11.841Z,24.08
2022-11-27T12:33:16.311Z,21.83
2022-11-27T12:35:00.161Z,21.30
2022-11-27T12:36:56.684Z,21.60
2022-11-27T12:38:46.352Z,33.40
2022-11-27T12:40:40.407Z,20.58
2022-11-27T12:42:22.219Z,17.10
2022-11-27T12:44:00.381Z,20.80
2022-11-27T12:45:39.910Z,23.02
2022-11-27T12:47:18.234Z,21.23
2022-11-27T12:48:55.012Z,22.77
2022-11-27T12:50:39.509Z,27.42
2022-11-27T12:52:17.996Z,21.77
2022-11-27T12:53:57.246Z,17.33
2022-11-27T12:55:34.755Z,10.18
2022-11-27T12:57:16.315Z,7.97
2022-11-27T12:58:55.963Z,11.25
2022-11-27T13:00:33.244Z,7.25
2022-11-27T13:02:24.987Z,8.95
2022-11-27T13:04:11.734Z,9.00
2022-11-27T13:05:49.780Z,13.70
2022-11-27T13:07:28.060Z,9.40
2022-11-27T13:09:04.606Z,6.82
2022-11-27T13:10:44.319Z,7.05
2022-11-27T13:12:24.830Z,7.22
2022-11-27T13:14:04.592Z,6.20
2022-11-27T13:15:42.516Z,7.03
2022-11-27T13:17:18.133Z,5.57
2022-11-27T13:18:56.163Z,6.25
2022-11-27T13:20:35.915Z,6.90
2022-11-27T13:22:15.927Z,7.80
2022-11-27T13:23:49.282Z,5.60
2022-11-27T13:25:23.433Z,4.78
2022-11-27T13:27:04.963Z,6.80
2022-11-27T13:28:43.400Z,4.32
2022-11-27T13:30:23.060Z,6.18
2022-11-27T13:31:58.457Z,6.20
2022-11-27T13:33:41.209Z,5.25
2022-11-27T13:35:22.503Z,6.40
2022-11-27T13:37:02.023Z,11.38
2022-11-27T13:38:38.312Z,7.60
2022-11-27T13:40:23.067Z,19.35
2022-11-27T13:42:07.593Z,14.57
2022-11-27T13:43:44.516Z,16.20
2022-11-27T13:45:23.324Z,17.67
2022-11-27T13:47:01.295Z,16.42
2022-11-27T13:48:38.157Z,16.42
2022-11-27T13:50:14.012Z,11.88
2022-11-27T13:51:47.276Z,11.20
2022-11-27T13:53:30.967Z,9.10
2022-11-27T13:55:07.643Z,12.55
2022-11-27T13:56:41.581Z,15.30
2022-11-27T13:58:16.220Z,15.23
2022-11-27T14:00:01.589Z,23.17
2022-11-27T14:01:35.208Z,21.55
2022-11-27T14:03:12.467Z,26.58
2022-11-27T14:04:55.864Z,23.23
2022-11-27T14:06:32.839Z,29.65
2022-11-27T14:08:18.657Z,28.77
2022-11-27T14:09:55.697Z,26.50
2022-11-27T14:11:41.315Z,13.95
2022-11-27T14:13:16.187Z,14.10
2022-11-27T14:15:03.534Z,12.25
2022-11-27T14:16:39.077Z,10.48
2022-11-27T14:18:19.866Z,9.95
2022-11-27T14:20:01.994Z,9.95
2022-11-27T14:21:41.993Z,13.40
2022-11-27T14:23:15.288Z,15.90
2022-11-27T14:24:55.994Z,19.98
2022-11-27T14:26:31.454Z,21.85
2022-11-27T14:28:14.314Z,15.77
2022-11-27T14:29:49.303Z,13.35
2022-11-27T14:31:30.818Z,16.52
2022-11-27T14:33:05.766Z,18.98
2022-11-27T14:34:39.418Z,16.98
2022-11-27T14:36:24.188Z,17.33
2022-11-27T14:38:10.130Z,18.85
2022-11-27T14:39:43.651Z,13.57
2022-11-27T14:41:19.008Z,12.52
2022-11-27T14:42:52.236Z,11.05
2022-11-27T14:44:25.629Z,19.55
2022-11-27T14:46:02.327Z,14.07
2022-11-27T14:47:36.719Z,17.13
2022-11-27T14:49:19.557Z,12.57
2022-11-27T14:50:54.844Z,13.48
2022-11-27T14:52:28.926Z,12.95
2022-11-27T14:54:04.298Z,12.45
2022-11-27T14:55:37.744Z,13.60
2022-11-27T14:57:17.714Z,14.25
2022-11-27T14:58:54.313Z,15.15
2022-11-27T15:00:29.050Z,14.00
2022-11-27T15:02:05.864Z,12.63
2022-11-27T15:03:39.199Z,13.45
2022-11-27T15:05:20.617Z,18.02
2022-11-27T15:06:54.741Z,19.50
2022-11-27T15:08:29.607Z,21.20
2022-11-27T15:10:05.926Z,17.65
2022-11-27T15:11:54.958Z,15.30
2022-11-27T15:13:31.711Z,16.38
2022-11-27T15:15:09.282Z,20.02
2022-11-27T15:16:47.681Z,25.35
2022-11-27T15:18:24.077Z,22.90
2022-11-27T15:19:58.777Z,17.25
2022-11-27T15:21:39.283Z,20.13
2022-11-27T15:23:19.311Z,14.15
2022-11-27T15:25:00.236Z,15.35
2022-11-27T15:26:36.442Z,14.77
2022-11-27T15:28:36.061Z,13.10
2022-11-27T15:30:15.356Z,13.82
2022-11-27T15:31:53.031Z,13.75
2022-11-27T15:33:29.681Z,14.38
2022-11-27T15:35:15.178Z,15.30
2022-11-27T15:36:50.752Z,14.20
2022-11-27T15:38:23.894Z,15.48
2022-11-27T15:39:58.010Z,14.73
2022-11-27T15:41:31.611Z,14.10
2022-11-27T15:43:11.655Z,14.93
2022-11-27T15:44:44.961Z,18.02
2022-11-27T15:46:25.090Z,17.13
2022-11-27T15:48:00.452Z,14.15
2022-11-27T15:49:35.866Z,14.55
2022-11-27T15:51:09.048Z,10.52
2022-11-27T15:52:42.419Z,14.38
2022-11-27T15:54:15.561Z,13.25
2022-11-27T15:55:48.815Z,13.05
2022-11-27T15:57:22.041Z,14.90
2022-11-27T15:58:55.202Z,14.43
2022-11-27T16:00:28.395Z,15.32
2022-11-27T16:02:01.582Z,14.38
2022-11-27T16:03:34.786Z,15.30
2022-11-27T16:05:10.456Z,13.90
2022-11-27T16:06:43.634Z,9.82
2022-11-27T16:08:17.304Z,9.80
2022-11-27T16:09:50.427Z,11.77
2022-11-27T16:11:24.119Z,10.15
2022-11-27T16:12:58.915Z,8.63
2022-11-27T16:14:32.177Z,13.70
2022-11-27T16:16:07.662Z,8.98
2022-11-27T16:17:40.885Z,9.38
2022-11-27T16:19:14.940Z,12.38
2022-11-27T16:20:49.575Z,12.40
2022-11-27T16:22:22.714Z,12.90
2022-11-27T16:23:58.933Z,13.10
2022-11-27T16:25:32.064Z,10.40
2022-11-27T16:27:07.282Z,10.73
2022-11-27T16:28:40.544Z,12.57
2022-11-27T16:30:14.589Z,14.38
2022-11-27T16:31:47.898Z,17.85
2022-11-27T16:33:21.878Z,18.83
2022-11-27T16:34:55.140Z,19.75
2022-11-27T16:36:30.676Z,15.55
2022-11-27T16:38:04.357Z,19.48
2022-11-27T16:39:37.757Z,19.13
2022-11-27T16:41:13.664Z,20.90
2022-11-27T16:42:47.001Z,24.42
2022-11-27T16:44:20.498Z,24.08
2022-11-27T16:45:53.719Z,23.75
2022-11-27T16:47:32.087Z,13.82
2022-11-27T16:49:07.943Z,16.55
2022-11-27T16:50:41.278Z,13.65
2022-11-27T16:52:16.551Z,21.45
2022-11-27T16:53:51.224Z,24.90
2022-11-27T16:55:26.338Z,31.27
2022-11-27T16:57:00.064Z,21.77
2022-11-27T16:58:34.838Z,25.23
2022-11-27T17:00:09.421Z,36.78
2022-11-27T17:01:43.261Z,37.78
2022-11-27T17:03:16.645Z,36.40
2022-11-27T17:04:49.938Z,33.15
2022-11-27T17:06:26.520Z,42.08
2022-11-27T17:08:01.174Z,40.75
2022-11-27T17:09:34.501Z,46.70
2022-11-27T17:11:11.768Z,32.45
2022-11-27T17:12:45.076Z,36.75
2022-11-27T17:14:20.501Z,35.97
2022-11-27T17:15:55.107Z,33.97
2022-11-27T17:17:29.340Z,35.60
2022-11-27T17:19:03.462Z,41.78
2022-11-27T17:20:37.944Z,40.63
2022-11-27T17:22:11.330Z,51.50
2022-11-27T17:24:18.726Z,52.28
2022-11-27T17:25:52.099Z,26.58
2022-11-27T17:27:25.653Z,30.80
2022-11-27T17:29:02.534Z,22.38
2022-11-27T17:30:39.523Z,26.42
2022-11-27T17:32:13.667Z,30.42
2022-11-27T17:33:47.577Z,31.08
2022-11-27T17:35:20.826Z,36.05
2022-11-27T17:36:57.518Z,41.10
2022-11-27T17:38:30.879Z,39.05
2022-11-27T17:40:06.425Z,36.97
2022-11-27T17:41:40.121Z,37.28
2022-11-27T17:43:13.351Z,34.42
2022-11-27T17:44:47.503Z,33.20
2022-11-27T17:46:22.730Z,33.40
2022-11-27T17:47:56.549Z,70.32
2022-11-27T17:49:29.839Z,36.67
2022-11-27T17:51:03.558Z,39.95
2022-11-27T17:52:38.211Z,36.90
2022-11-27T17:54:12.079Z,33.17
2022-11-27T17:55:46.949Z,33.38
2022-11-27T17:57:20.309Z,30.02
2022-11-27T17:58:53.924Z,33.03
2022-11-27T18:00:27.105Z,36.08
2022-11-27T18:02:00.801Z,35.97
2022-11-27T18:03:34.612Z,45.83
2022-11-27T18:05:09.895Z,44.67
2022-11-27T18:06:43.556Z,51.72
2022-11-27T18:08:17.049Z,54.97
2022-11-27T18:09:54.334Z,53.03
2022-11-27T18:11:31.196Z,48.08
2022-11-27T18:13:06.154Z,51.50
2022-11-27T18:14:39.542Z,52.25
2022-11-27T18:16:15.076Z,49.55
2022-11-27T18:17:48.497Z,49.05
2022-11-27T18:19:22.419Z,46.63
2022-11-27T18:20:55.595Z,40.00
2022-11-27T18:22:28.842Z,44.63
2022-11-27T18:25:55.865Z,52.60
2022-11-27T18:27:30.982Z,42.70
2022-11-27T18:29:04.634Z,40.88
2022-11-27T18:30:38.042Z,37.50
2022-11-27T18:32:11.810Z,39.50
2022-11-27T18:33:46.122Z,38.25
2022-11-27T18:35:19.472Z,50.70
2022-11-27T18:36:57.263Z,45.53
2022-11-27T18:38:31.832Z,50.10
2022-11-27T18:40:05.568Z,50.30
2022-11-27T18:41:39.069Z,46.22
2022-11-27T18:43:13.596Z,57.50
2022-11-27T18:44:46.900Z,51.92
2022-11-27T18:46:20.392Z,63.30
2022-11-27T18:47:54.362Z,56.00
2022-11-27T18:49:29.050Z,52.15
2022-11-27T18:51:04.084Z,52.15
2022-11-27T18:52:38.413Z,48.33
2022-11-27T18:54:13.760Z,44.55
2022-11-27T18:55:51.546Z,42.60
2022-11-27T18:57:26.248Z,37.75
2022-11-27T18:59:05.316Z,39.53
2022-11-27T19:00:39.420Z,39.28
2022-11-27T19:02:13.548Z,39.80
2022-11-27T19:03:47.047Z,36.15
2022-11-27T19:05:20.463Z,34.08
2022-11-27T19:06:54.719Z,36.05
2022-11-27T19:08:28.048Z,35.08
2022-11-27T19:10:01.314Z,30.13
2022-11-27T19:11:35.159Z,31.85
2022-11-27T19:13:09.864Z,29.63
2022-11-27T19:14:44.906Z,28.05
2022-11-27T19:16:20.670Z,37.90
2022-11-27T19:17:54.030Z,98.38
2022-11-27T19:19:53.409Z,56.38
2022-11-27T19:21:22.292Z,67.55
2022-11-27T19:22:56.263Z,62.88
2022-11-27T19:24:29.611Z,59.63
2022-11-27T19:26:06.058Z,72.05
2022-11-27T19:27:39.196Z,63.45
2022-11-27T19:29:18.528Z,65.68
2022-11-27T19:30:53.174Z,69.63
2022-11-27T19:32:26.479Z,74.22
2022-11-27T19:34:01.137Z,73.15
2022-11-27T19:35:36.340Z,68.43
2022-11-27T19:37:10.102Z,67.72
2022-11-27T19:38:44.435Z,65.53
2022-11-27T19:40:18.376Z,54.95
2022-11-27T19:41:51.805Z,35.53
2022-11-27T19:43:25.125Z,33.40
2022-11-27T19:44:58.835Z,32.35
2022-11-27T19:46:35.179Z,30.63
2022-11-27T19:48:09.853Z,25.45
2022-11-27T19:49:44.371Z,23.67
2022-11-27T19:51:18.262Z,19.75
2022-11-27T19:52:51.825Z,18.30
2022-11-27T19:54:25.114Z,18.48
2022-11-27T19:55:58.359Z,12.30
2022-11-27T19:57:31.603Z,15.60
2022-11-27T19:59:05.011Z,19.65
2022-11-27T20:00:39.642Z,21.33
2022-11-27T20:02:15.407Z,17.42
2022-11-27T20:03:49.628Z,16.15
2022-11-27T20:05:23.134Z,33.20
2022-11-27T20:06:56.561Z,24.73
2022-11-27T20:08:29.791Z,26.83
2022-11-27T20:10:03.957Z,23.65
2022-11-27T20:11:37.772Z,25.70
2022-11-27T20:13:11.066Z,25.50
2022-11-27T20:14:45.027Z,24.52
2022-11-27T20:16:20.758Z,24.70
2022-11-27T20:17:57.061Z,24.05
2022-11-27T20:19:30.674Z,19.15
2022-11-27T20:21:09.009Z,18.90
2022-11-27T20:22:42.224Z,24.08
2022-11-27T20:24:15.972Z,21.90
2022-11-27T20:25:50.575Z,22.00
2022-11-27T20:27:24.100Z,20.85
2022-11-27T20:28:58.570Z,24.50
2022-11-27T20:30:33.166Z,25.42
2022-11-27T20:32:06.687Z,28.88
2022-11-27T20:33:41.349Z,31.40
2022-11-27T20:35:15.257Z,33.95
2022-11-27T20:36:49.506Z,40.65
2022-11-27T20:38:23.236Z,40.33
2022-11-27T20:39:56.504Z,31.55
2022-11-27T20:41:30.419Z,26.52
2022-11-27T20:43:03.588Z,26.25
2022-11-27T20:44:36.821Z,26.25
2022-11-27T20:46:10.467Z,25.15
2022-11-27T20:47:44.630Z,24.05
2022-11-27T20:49:19.714Z,21.38
2022-11-27T20:50:53.017Z,20.42